Billings Logan International Airport
KBIL : rendu visible

Aérodrome :











RETROUVEZ-NOUS SUR...

 
LOGIN :

S'inscrire | Disclaimer

   EN    FR    IT 

 









Légende :    VFR   VFR Marginal   IFR   IFR Intensif   IFR Très Intensif
Visi : 
Plafond : 
>= 8 km
>= 3000ft
5 à 8 km
1000 à 3000 ft
1500m à 5 km
500 à 1000 ft
800 à 1500m
200 à 500 ft
< 800m
< 200 ft
Symboles :   Orages  Brouillard  Fortes neiges  Fortes précipitations  Vent > 20 kt






- Altitude de l'aérodrome : 3652 ft
- Code IATA : BIL


KBIL - Billings Logan International

DERNIER METAR :
  • 250153Z 20007KT 10SM FEW030 SCT070 BKN100 10/06 A3010 RMK AO2 SLP198 VIRGA ALQDS T01000061

METARs EXPIRÉS :
  • 250053Z 19007KT 10SM FEW030 SCT065 BKN080 10/06 A3010 RMK AO2 RAE30 SLP197 VIRGA ALQDS P0000 T01000056 $
  • 242353Z 22006KT 10SM -RA FEW020 SCT045 BKN110 10/06 A3011 RMK AO2 RAB32 SLP201 P0000 60019 T01000056 10106 20083 53004 $

TAF KBIL
Valide du 25 à 00h jusqu'au 26 à 00h UTC


242345Z 2500/2524 VRB05KT P6SM VCSH SCT025 OVC040
FM250100 23008KT P6SM VCSH BKN040
FM250300 26006KT P6SM BKN050
FM250600 23006KT P6SM SCT050
FM251500 26010KT P6SM SCT050
FIR KZLC / Amérique du Nord



MET'MAP, la Météo Aéronautique d'un coup d'oeil ! - Copyright ORBIFLY Décembre 2007 - Disclaimer

ORBIFLY MET'MAP TEAM :

Programmation & Développement : Alexandra Zaïnal
Sur une idée originale de : Baudouin d'Aumeries
Assistance à la programmation : Marc-Olivier Méhu
Soutien technique & logistique : Manuel Goepfert

Contact : metmap@orbifly.com




SOURCES & CREDITS :

   NOAA       Earth
Advisory